createdAt,value
2017-12-12T00:00:02.378Z,2.60
2017-12-12T00:02:30.884Z,2.40
2017-12-12T00:04:59.259Z,2.30
2017-12-12T00:07:27.646Z,2.30
2017-12-12T00:09:56.017Z,2.30
2017-12-12T00:12:24.403Z,2.30
2017-12-12T00:14:52.806Z,2.30
2017-12-12T00:17:21.950Z,2.40
2017-12-12T00:19:50.360Z,2.40
2017-12-12T00:22:39.703Z,2.40
2017-12-12T00:25:08.079Z,2.40
2017-12-12T00:27:36.452Z,2.40
2017-12-12T00:30:04.808Z,2.40
2017-12-12T00:32:33.223Z,2.40
2017-12-12T00:35:01.611Z,2.30
2017-12-12T00:37:29.986Z,2.30
2017-12-12T00:39:58.370Z,2.40
2017-12-12T00:42:26.740Z,2.30
2017-12-12T00:44:55.124Z,2.40
2017-12-12T00:47:23.501Z,2.40
2017-12-12T00:49:51.891Z,2.40
2017-12-12T00:52:20.257Z,2.40
2017-12-12T00:54:48.766Z,2.30
2017-12-12T00:57:18.043Z,2.30
2017-12-12T00:59:46.434Z,2.30
2017-12-12T01:02:14.964Z,2.30
2017-12-12T01:04:43.434Z,2.30
2017-12-12T01:07:11.811Z,2.30
2017-12-12T01:09:40.165Z,2.30
2017-12-12T01:12:09.307Z,2.10
2017-12-12T01:14:37.878Z,2.10
2017-12-12T01:17:06.397Z,2.20
2017-12-12T01:19:34.814Z,2.20
2017-12-12T01:22:04.057Z,2.20
2017-12-12T01:24:32.436Z,2.20
2017-12-12T01:27:00.814Z,2.20
2017-12-12T01:29:29.278Z,2.20
2017-12-12T01:31:57.656Z,2.20
2017-12-12T01:34:26.023Z,2.20
2017-12-12T01:36:54.444Z,2.20
2017-12-12T01:39:22.807Z,2.10
2017-12-12T01:41:50.580Z,2.10
2017-12-12T01:44:18.336Z,2.10
2017-12-12T01:46:46.087Z,2.10
2017-12-12T01:49:14.494Z,2.10
2017-12-12T01:51:42.985Z,2.20
2017-12-12T01:54:11.920Z,2.20
2017-12-12T01:56:40.520Z,2.20
2017-12-12T01:59:08.264Z,2.20
2017-12-12T02:01:36.370Z,2.30
2017-12-12T02:04:04.447Z,2.30
2017-12-12T02:06:32.137Z,2.30
2017-12-12T02:09:00.612Z,2.20
2017-12-12T02:11:29.134Z,2.20
2017-12-12T02:13:57.170Z,2.30
2017-12-12T02:16:24.912Z,2.30
2017-12-12T02:18:52.632Z,2.40
2017-12-12T02:21:20.347Z,2.40
2017-12-12T02:23:48.834Z,2.40
2017-12-12T02:26:17.315Z,2.40
2017-12-12T02:28:45.798Z,2.40
2017-12-12T02:31:14.415Z,2.50
2017-12-12T02:33:42.127Z,2.40
2017-12-12T02:36:10.620Z,2.50
2017-12-12T02:38:38.377Z,2.50
2017-12-12T02:41:06.967Z,2.40
2017-12-12T02:43:35.434Z,2.50
2017-12-12T02:46:05.119Z,2.40
2017-12-12T02:48:32.815Z,2.40
2017-12-12T02:51:01.496Z,2.50
2017-12-12T02:53:29.960Z,2.50
2017-12-12T02:55:57.660Z,2.50
2017-12-12T02:58:25.399Z,2.50
2017-12-12T03:00:53.910Z,2.50
2017-12-12T03:03:25.746Z,2.50
2017-12-12T03:05:54.208Z,2.50
2017-12-12T03:08:23.034Z,2.50
2017-12-12T03:10:50.717Z,2.50
2017-12-12T03:13:18.505Z,2.50
2017-12-12T03:15:46.198Z,2.50
2017-12-12T03:18:14.678Z,2.50
2017-12-12T03:20:43.184Z,2.50
2017-12-12T03:23:10.962Z,2.50
2017-12-12T03:25:39.365Z,2.60
2017-12-12T03:28:07.383Z,2.50
2017-12-12T03:30:35.103Z,2.50
2017-12-12T03:33:03.135Z,2.50
2017-12-12T03:35:31.171Z,2.60
2017-12-12T03:37:59.999Z,2.50
2017-12-12T03:40:28.355Z,2.50
2017-12-12T03:42:56.151Z,2.50
2017-12-12T03:45:24.223Z,2.50
2017-12-12T03:47:52.094Z,2.50
2017-12-12T03:50:20.151Z,2.50
2017-12-12T03:52:48.230Z,2.50
2017-12-12T03:55:16.797Z,2.60
2017-12-12T03:57:44.493Z,2.60
2017-12-12T04:00:12.200Z,2.60
2017-12-12T04:02:40.327Z,2.60
2017-12-12T04:05:08.044Z,2.60
2017-12-12T04:07:36.409Z,2.60
2017-12-12T04:10:04.401Z,2.60
2017-12-12T04:12:32.438Z,2.60
2017-12-12T04:15:01.587Z,2.70
2017-12-12T04:17:30.045Z,2.70
2017-12-12T04:19:58.243Z,2.70
2017-12-12T04:22:26.704Z,2.70
2017-12-12T04:24:54.451Z,2.60
2017-12-12T04:27:22.495Z,2.60
2017-12-12T04:29:51.666Z,2.60
2017-12-12T04:32:19.549Z,2.50
2017-12-12T04:34:47.616Z,2.50
2017-12-12T04:37:15.310Z,2.50
2017-12-12T04:39:43.349Z,2.50
2017-12-12T04:42:12.892Z,2.40
2017-12-12T04:44:41.020Z,2.40
2017-12-12T04:47:09.097Z,2.40
2017-12-12T04:49:36.789Z,2.40
2017-12-12T04:52:04.934Z,2.30
2017-12-12T04:54:32.795Z,2.30
2017-12-12T04:57:01.692Z,2.30
2017-12-12T04:59:29.741Z,2.30
2017-12-12T05:01:57.796Z,2.30
2017-12-12T05:04:26.251Z,2.30
2017-12-12T05:06:54.690Z,2.30
2017-12-12T05:09:23.381Z,2.30
2017-12-12T05:11:51.874Z,2.30
2017-12-12T05:14:20.003Z,2.30
2017-12-12T05:16:47.703Z,2.30
2017-12-12T05:19:15.424Z,2.40
2017-12-12T05:21:43.503Z,2.40
2017-12-12T05:24:12.316Z,2.50
2017-12-12T05:26:40.801Z,2.40
2017-12-12T05:29:09.369Z,2.50
2017-12-12T05:31:38.212Z,2.50
2017-12-12T05:34:05.964Z,2.50
2017-12-12T05:36:34.080Z,2.50
2017-12-12T05:39:02.173Z,2.50
2017-12-12T05:41:30.698Z,2.50
2017-12-12T05:43:58.419Z,2.50
2017-12-12T05:46:27.247Z,2.50
2017-12-12T05:48:55.000Z,2.50
2017-12-12T05:51:23.048Z,2.60
2017-12-12T05:53:52.447Z,2.60
2017-12-12T05:56:21.109Z,2.50
2017-12-12T05:58:48.848Z,2.50
2017-12-12T06:01:18.233Z,2.60
2017-12-12T06:03:46.920Z,2.60
2017-12-12T06:06:15.939Z,2.60
2017-12-12T06:08:43.646Z,2.60
2017-12-12T06:11:11.374Z,2.60
2017-12-12T06:13:39.119Z,2.70
2017-12-12T06:16:06.831Z,2.70
2017-12-12T06:18:34.858Z,2.70
2017-12-12T06:21:02.918Z,2.70
2017-12-12T06:23:31.105Z,2.70
2017-12-12T06:25:59.211Z,2.70
2017-12-12T06:28:28.082Z,2.80
2017-12-12T06:30:56.620Z,2.80
2017-12-12T06:33:24.377Z,2.70
2017-12-12T06:35:52.109Z,2.70
2017-12-12T06:38:21.310Z,2.80
2017-12-12T06:40:49.357Z,2.80
2017-12-12T06:43:18.032Z,2.80
2017-12-12T06:45:46.539Z,2.80
2017-12-12T06:48:15.012Z,2.80
2017-12-12T06:50:44.208Z,2.90
2017-12-12T06:53:12.280Z,2.90
2017-12-12T06:55:40.771Z,2.90
2017-12-12T06:58:09.443Z,2.90
2017-12-12T07:00:37.939Z,2.90
2017-12-12T07:03:05.990Z,2.90
2017-12-12T07:05:34.922Z,3.00
2017-12-12T07:08:02.683Z,2.90
2017-12-12T07:10:30.853Z,3.00
2017-12-12T07:12:58.727Z,3.00
2017-12-12T07:15:27.002Z,3.00
2017-12-12T07:17:54.966Z,3.00
2017-12-12T07:20:22.687Z,3.00
2017-12-12T07:22:51.849Z,3.00
2017-12-12T07:25:20.216Z,3.00
2017-12-12T07:27:48.685Z,3.00
2017-12-12T07:30:17.080Z,3.10
2017-12-12T07:32:45.464Z,3.10
2017-12-12T07:35:13.961Z,3.10
2017-12-12T07:37:42.311Z,3.00
2017-12-12T07:40:10.699Z,3.10
2017-12-12T07:42:39.085Z,3.10
2017-12-12T07:45:07.619Z,3.10
2017-12-12T07:47:36.054Z,3.10
2017-12-12T07:50:04.095Z,3.20
2017-12-12T07:52:32.160Z,3.10
2017-12-12T07:55:00.852Z,3.20
2017-12-12T07:57:29.232Z,3.20
2017-12-12T07:59:58.267Z,3.20
2017-12-12T08:02:26.639Z,3.20
2017-12-12T08:04:55.024Z,3.20
2017-12-12T08:07:23.054Z,3.20
2017-12-12T08:09:51.108Z,3.30
2017-12-12T08:12:19.465Z,3.30
2017-12-12T08:14:48.592Z,3.30
2017-12-12T08:17:17.119Z,3.30
2017-12-12T08:19:45.477Z,3.30
2017-12-12T08:22:13.835Z,3.20
2017-12-12T08:24:41.862Z,3.20
2017-12-12T08:27:10.238Z,3.10
2017-12-12T08:29:38.748Z,3.00
2017-12-12T08:32:08.074Z,2.90
2017-12-12T08:34:36.505Z,2.90
2017-12-12T08:37:04.891Z,2.90
2017-12-12T08:39:34.377Z,3.00
2017-12-12T08:42:02.728Z,3.10
2017-12-12T08:44:30.775Z,3.10
2017-12-12T08:46:59.180Z,3.10
2017-12-12T08:49:27.541Z,3.20
2017-12-12T08:51:56.373Z,3.20
2017-12-12T08:54:24.731Z,3.20
2017-12-12T08:56:53.101Z,3.20
2017-12-12T08:59:21.457Z,3.20
2017-12-12T09:01:50.824Z,3.20
2017-12-12T09:04:19.168Z,3.30
2017-12-12T09:06:48.124Z,3.30
2017-12-12T09:09:16.492Z,3.20
2017-12-12T09:11:44.875Z,3.30
2017-12-12T09:14:13.238Z,3.30
2017-12-12T09:16:41.888Z,3.20
2017-12-12T09:19:11.210Z,3.30
2017-12-12T09:21:39.616Z,3.30
2017-12-12T09:24:07.650Z,3.30
2017-12-12T09:26:36.038Z,3.30
2017-12-12T09:29:04.400Z,3.30
2017-12-12T09:31:32.801Z,3.30
2017-12-12T09:34:01.172Z,3.30
2017-12-12T09:36:29.224Z,3.30
2017-12-12T09:38:57.641Z,3.30
2017-12-12T09:41:25.829Z,3.30
2017-12-12T09:43:53.963Z,3.40
2017-12-12T09:46:25.308Z,3.40
2017-12-12T09:48:53.684Z,3.40
2017-12-12T09:51:22.028Z,3.30
2017-12-12T09:53:51.183Z,3.30
2017-12-12T09:56:19.545Z,3.30
2017-12-12T09:58:47.907Z,3.30
2017-12-12T10:01:15.965Z,3.40
2017-12-12T10:03:44.340Z,3.40
2017-12-12T10:06:13.510Z,3.40
2017-12-12T10:08:41.874Z,3.40
2017-12-12T10:11:10.248Z,3.30
2017-12-12T10:13:38.775Z,3.30
2017-12-12T10:16:07.920Z,3.40
2017-12-12T10:18:36.270Z,3.40
2017-12-12T10:21:04.451Z,3.50
2017-12-12T10:23:32.827Z,3.50
2017-12-12T10:26:01.345Z,3.60
2017-12-12T10:28:29.697Z,3.70
2017-12-12T10:30:58.052Z,3.70
2017-12-12T10:33:26.419Z,3.80
2017-12-12T10:35:54.776Z,3.80
2017-12-12T10:38:23.252Z,3.80
2017-12-12T10:40:51.812Z,3.90
2017-12-12T10:43:19.519Z,3.90
2017-12-12T10:45:47.416Z,4.00
2017-12-12T10:48:15.346Z,4.10
2017-12-12T10:50:44.300Z,4.30
2017-12-12T10:53:12.341Z,4.30
2017-12-12T10:55:40.412Z,4.30
2017-12-12T10:58:08.268Z,4.30
2017-12-12T11:00:36.726Z,4.10
2017-12-12T11:03:05.084Z,4.00
2017-12-12T11:05:34.232Z,3.90
2017-12-12T11:08:02.590Z,3.90
2017-12-12T11:10:30.974Z,4.00
2017-12-12T11:12:59.804Z,3.90
2017-12-12T11:15:28.177Z,3.80
2017-12-12T11:17:57.721Z,3.90
2017-12-12T11:20:26.900Z,3.90
2017-12-12T11:22:56.093Z,4.00
2017-12-12T11:25:23.919Z,4.00
2017-12-12T11:27:52.091Z,4.10
2017-12-12T11:30:20.632Z,4.20
2017-12-12T11:32:49.548Z,4.20
2017-12-12T11:35:17.293Z,4.20
2017-12-12T11:37:45.828Z,4.20
2017-12-12T11:40:14.298Z,4.10
2017-12-12T11:42:42.759Z,4.10
2017-12-12T11:45:11.309Z,4.10
2017-12-12T11:47:39.756Z,4.10
2017-12-12T11:50:07.467Z,4.10
2017-12-12T11:52:35.549Z,4.10
2017-12-12T11:55:04.082Z,4.10
2017-12-12T11:57:31.778Z,4.10
2017-12-12T11:59:59.880Z,4.10
2017-12-12T12:02:27.623Z,4.20
2017-12-12T12:04:55.864Z,4.30
2017-12-12T12:07:24.349Z,4.30
2017-12-12T12:09:53.223Z,4.20
2017-12-12T12:12:21.686Z,4.30
2017-12-12T12:14:50.049Z,4.30
2017-12-12T12:17:18.487Z,4.30
2017-12-12T12:19:47.092Z,4.30
2017-12-12T12:22:15.261Z,4.20
2017-12-12T12:24:43.107Z,4.20
2017-12-12T12:27:11.707Z,4.30
2017-12-12T12:29:39.996Z,4.30
2017-12-12T12:32:07.849Z,4.30
2017-12-12T12:34:36.042Z,4.30
2017-12-12T12:37:04.101Z,4.40
2017-12-12T12:39:32.944Z,4.40
2017-12-12T12:42:00.748Z,4.40
2017-12-12T12:44:29.136Z,4.40
2017-12-12T12:46:56.914Z,4.40
2017-12-12T12:49:25.292Z,4.50
2017-12-12T12:51:53.507Z,4.50
2017-12-12T12:54:22.265Z,4.50
2017-12-12T12:56:49.982Z,4.50
2017-12-12T12:59:18.365Z,4.50
2017-12-12T13:01:46.748Z,4.50
2017-12-12T13:04:15.132Z,4.50
2017-12-12T13:06:43.504Z,4.50
2017-12-12T13:09:12.269Z,4.50
2017-12-12T13:11:41.557Z,4.50
2017-12-12T13:14:10.726Z,4.50
2017-12-12T13:16:39.014Z,4.50
2017-12-12T13:19:07.376Z,4.60
2017-12-12T13:21:35.961Z,4.50
2017-12-12T13:24:04.401Z,4.50
2017-12-12T13:26:32.748Z,4.40
2017-12-12T13:29:02.028Z,4.40
2017-12-12T13:31:30.430Z,4.40
2017-12-12T13:33:59.560Z,4.60
2017-12-12T13:36:27.273Z,4.60
2017-12-12T13:38:56.409Z,4.60
2017-12-12T13:41:24.787Z,4.60
2017-12-12T13:43:53.183Z,4.60
2017-12-12T13:46:21.851Z,4.60
2017-12-12T13:48:50.384Z,4.60
2017-12-12T13:51:18.744Z,4.60
2017-12-12T13:53:47.639Z,4.60
2017-12-12T13:56:16.135Z,4.60
2017-12-12T13:58:45.570Z,4.60
2017-12-12T14:01:13.917Z,4.60
2017-12-12T14:03:43.215Z,4.60
2017-12-12T14:06:11.816Z,4.60
2017-12-12T14:08:40.953Z,4.50
2017-12-12T14:11:09.461Z,4.60
2017-12-12T14:13:38.079Z,4.60
2017-12-12T14:16:06.429Z,4.60
2017-12-12T14:18:34.936Z,4.60
2017-12-12T14:21:03.438Z,4.50
2017-12-12T14:23:31.843Z,4.50
2017-12-12T14:26:00.320Z,4.50
2017-12-12T14:28:28.677Z,4.50
2017-12-12T14:30:57.232Z,4.40
2017-12-12T14:33:25.881Z,4.40
2017-12-12T14:35:54.724Z,4.40
2017-12-12T14:38:23.352Z,4.30
2017-12-12T14:40:51.708Z,4.30
2017-12-12T14:43:19.736Z,4.30
2017-12-12T14:45:48.337Z,4.20
2017-12-12T14:48:16.755Z,4.20
2017-12-12T14:50:45.278Z,4.20
2017-12-12T14:53:13.726Z,4.20
2017-12-12T14:55:42.250Z,4.20
2017-12-12T14:58:10.661Z,4.20
2017-12-12T15:00:39.205Z,4.10
2017-12-12T15:03:07.704Z,4.10
2017-12-12T15:05:36.075Z,4.10
2017-12-12T15:08:04.582Z,4.10
2017-12-12T15:10:33.166Z,4.00
2017-12-12T15:13:01.562Z,4.00
2017-12-12T15:15:29.928Z,4.10
2017-12-12T15:17:58.434Z,4.00
2017-12-12T15:20:26.802Z,4.10
2017-12-12T15:22:56.234Z,4.10
2017-12-12T15:25:24.637Z,4.10
2017-12-12T15:27:52.983Z,4.10
2017-12-12T15:30:22.214Z,4.10
2017-12-12T15:32:50.583Z,4.10
2017-12-12T15:35:18.626Z,4.10
2017-12-12T15:37:47.871Z,4.10
2017-12-12T15:40:16.232Z,4.10
2017-12-12T15:42:44.599Z,4.10
2017-12-12T15:45:14.644Z,4.10
2017-12-12T15:47:43.183Z,4.00
2017-12-12T15:50:12.319Z,3.90
2017-12-12T15:52:41.095Z,3.90
2017-12-12T15:55:09.754Z,3.90
2017-12-12T15:57:39.036Z,3.90
2017-12-12T16:00:07.474Z,3.90
2017-12-12T16:02:35.923Z,4.00
2017-12-12T16:05:04.423Z,4.00
2017-12-12T16:07:32.954Z,4.00
2017-12-12T16:10:01.353Z,4.10
2017-12-12T16:12:30.660Z,4.10
2017-12-12T16:14:59.847Z,4.20
2017-12-12T16:17:29.010Z,4.20
2017-12-12T16:19:57.488Z,4.20
2017-12-12T16:22:25.841Z,4.20
2017-12-12T16:24:54.219Z,4.20
2017-12-12T16:27:22.730Z,4.20
2017-12-12T16:29:51.107Z,4.20
2017-12-12T16:32:19.122Z,4.20
2017-12-12T16:34:48.238Z,4.10
2017-12-12T16:37:16.295Z,4.10
2017-12-12T16:39:44.557Z,4.10
2017-12-12T16:42:12.614Z,4.10
2017-12-12T16:44:41.916Z,4.10
2017-12-12T16:47:11.111Z,4.10
2017-12-12T16:49:41.243Z,4.10
2017-12-12T16:52:09.851Z,4.00
2017-12-12T16:54:38.224Z,4.00
2017-12-12T16:57:06.266Z,4.10
2017-12-12T16:59:34.626Z,4.10
2017-12-12T17:02:03.042Z,4.10
2017-12-12T17:04:31.528Z,4.10
2017-12-12T17:07:00.018Z,4.10
2017-12-12T17:09:28.485Z,4.10
2017-12-12T17:11:56.893Z,4.10
2017-12-12T17:14:25.290Z,4.10
2017-12-12T17:16:53.681Z,4.10
2017-12-12T17:19:22.825Z,4.20
2017-12-12T17:21:51.205Z,4.10
2017-12-12T17:24:19.763Z,4.10
2017-12-12T17:26:48.310Z,4.10
2017-12-12T17:29:16.692Z,4.00
2017-12-12T17:31:45.052Z,4.00
2017-12-12T17:34:13.420Z,4.00
2017-12-12T17:36:42.034Z,4.00
2017-12-12T17:39:10.405Z,4.00
2017-12-12T17:41:38.784Z,4.00
2017-12-12T17:44:08.137Z,4.00
2017-12-12T17:46:36.509Z,4.00
2017-12-12T17:49:04.862Z,4.00
2017-12-12T17:51:34.015Z,4.00
2017-12-12T17:54:02.518Z,4.00
2017-12-12T17:56:31.047Z,4.00
2017-12-12T17:58:59.462Z,4.00
2017-12-12T18:01:28.727Z,4.00
2017-12-12T18:03:57.067Z,3.90
2017-12-12T18:06:26.355Z,4.00
2017-12-12T18:08:55.601Z,4.00
2017-12-12T18:11:23.995Z,4.00
2017-12-12T18:13:52.429Z,4.00
2017-12-12T18:16:24.624Z,3.90
2017-12-12T18:18:53.773Z,3.90
2017-12-12T18:21:23.111Z,3.90
2017-12-12T18:23:51.527Z,3.90
2017-12-12T18:26:22.497Z,4.00
2017-12-12T18:28:52.146Z,4.00
2017-12-12T18:31:20.551Z,4.00
2017-12-12T18:33:48.912Z,4.10
2017-12-12T18:36:17.278Z,4.10
2017-12-12T18:38:45.708Z,4.10
2017-12-12T18:41:14.925Z,4.10
2017-12-12T18:43:43.381Z,4.10
2017-12-12T18:46:12.560Z,4.10
2017-12-12T18:48:41.110Z,4.10
2017-12-12T18:51:09.812Z,4.10
2017-12-12T18:53:38.353Z,4.10
2017-12-12T18:56:06.799Z,4.00
2017-12-12T18:58:36.772Z,4.10
2017-12-12T19:01:05.393Z,4.00
2017-12-12T19:03:35.059Z,4.10
2017-12-12T19:06:03.744Z,4.10
2017-12-12T19:08:32.660Z,4.10
2017-12-12T19:11:01.535Z,4.00
2017-12-12T19:13:30.656Z,4.00
2017-12-12T19:15:59.955Z,4.00
2017-12-12T19:18:28.909Z,4.00
2017-12-12T19:20:57.596Z,4.00
2017-12-12T19:23:26.279Z,4.10
2017-12-12T19:25:55.126Z,4.00
2017-12-12T19:28:23.854Z,4.00
2017-12-12T19:30:52.174Z,4.00
2017-12-12T19:33:21.743Z,4.00
2017-12-12T19:35:50.934Z,4.00
2017-12-12T19:38:19.587Z,4.00
2017-12-12T19:40:48.229Z,4.00
2017-12-12T19:43:16.790Z,4.00
2017-12-12T19:45:45.163Z,4.00
2017-12-12T19:48:14.469Z,4.00
2017-12-12T19:50:43.000Z,4.00
2017-12-12T19:53:12.373Z,4.00
2017-12-12T19:55:40.722Z,4.00
2017-12-12T19:58:08.798Z,4.00
2017-12-12T20:00:37.581Z,4.00
2017-12-12T20:03:06.192Z,4.00
2017-12-12T20:05:34.878Z,4.00
2017-12-12T20:08:03.568Z,4.10
2017-12-12T20:10:32.152Z,4.10
2017-12-12T20:13:00.689Z,4.10
2017-12-12T20:15:29.297Z,4.10
2017-12-12T20:17:57.804Z,4.10
2017-12-12T20:20:27.099Z,4.10
2017-12-12T20:22:55.706Z,4.10
2017-12-12T20:25:24.460Z,4.10
2017-12-12T20:27:53.971Z,4.10
2017-12-12T20:30:22.669Z,4.10
2017-12-12T20:32:51.374Z,4.10
2017-12-12T20:35:20.096Z,4.20
2017-12-12T20:37:48.614Z,4.20
2017-12-12T20:40:18.033Z,4.10
2017-12-12T20:42:46.458Z,4.10
2017-12-12T20:45:15.058Z,4.10
2017-12-12T20:47:44.580Z,4.10
2017-12-12T20:50:13.987Z,4.10
2017-12-12T20:52:43.376Z,4.20
2017-12-12T20:55:12.133Z,4.20
2017-12-12T20:57:41.134Z,4.20
2017-12-12T21:00:09.256Z,4.20
2017-12-12T21:02:37.983Z,4.20
2017-12-12T21:05:06.872Z,4.10
2017-12-12T21:07:36.503Z,4.10
2017-12-12T21:10:04.748Z,4.00
2017-12-12T21:12:33.385Z,3.90
2017-12-12T21:15:02.627Z,3.80
2017-12-12T21:17:31.057Z,3.80
2017-12-12T21:19:59.491Z,3.80
2017-12-12T21:22:27.911Z,3.70
2017-12-12T21:24:56.364Z,3.70
2017-12-12T21:27:24.758Z,3.70
2017-12-12T21:29:53.146Z,3.70
2017-12-12T21:32:21.587Z,3.70
2017-12-12T21:34:50.036Z,3.70
2017-12-12T21:37:19.246Z,3.90
2017-12-12T21:39:47.779Z,3.80
2017-12-12T21:42:16.308Z,3.90
2017-12-12T21:44:44.845Z,3.90
2017-12-12T21:47:13.261Z,3.90
2017-12-12T21:49:42.679Z,3.90
2017-12-12T21:52:11.845Z,4.00
2017-12-12T21:54:41.186Z,4.00
2017-12-12T21:57:09.265Z,4.00
2017-12-12T21:59:37.665Z,4.00
2017-12-12T22:02:06.082Z,4.10
2017-12-12T22:04:34.469Z,4.10
2017-12-12T22:07:02.883Z,4.10
2017-12-12T22:09:31.279Z,4.10
2017-12-12T22:11:59.657Z,4.20
2017-12-12T22:14:28.067Z,4.20
2017-12-12T22:16:57.344Z,4.20
2017-12-12T22:19:25.816Z,4.10
2017-12-12T22:21:54.190Z,4.20
2017-12-12T22:24:22.582Z,4.20
2017-12-12T22:26:50.976Z,4.20
2017-12-12T22:29:19.542Z,4.20
2017-12-12T22:31:48.031Z,4.20
2017-12-12T22:34:16.436Z,4.10
2017-12-12T22:36:44.803Z,4.10
2017-12-12T22:39:14.002Z,3.90
2017-12-12T22:41:43.234Z,3.90
2017-12-12T22:44:11.653Z,3.90
2017-12-12T22:46:40.055Z,3.90
2017-12-12T22:49:09.208Z,3.70
2017-12-12T22:51:37.734Z,3.70
2017-12-12T22:54:06.871Z,3.60
2017-12-12T22:56:35.508Z,3.60
2017-12-12T22:59:04.910Z,3.50
2017-12-12T23:01:34.064Z,3.50
2017-12-12T23:04:02.516Z,3.40
2017-12-12T23:06:30.873Z,3.40
2017-12-12T23:09:00.053Z,3.40
2017-12-12T23:11:29.194Z,3.40
2017-12-12T23:13:57.830Z,3.40
2017-12-12T23:16:26.224Z,3.40
2017-12-12T23:18:55.435Z,3.30
2017-12-12T23:21:24.563Z,3.30
2017-12-12T23:23:52.948Z,3.20
2017-12-12T23:26:21.463Z,3.20
2017-12-12T23:28:50.638Z,3.20
2017-12-12T23:31:19.521Z,3.10
2017-12-12T23:33:47.945Z,3.10
2017-12-12T23:36:16.328Z,3.10
2017-12-12T23:38:44.685Z,3.10
2017-12-12T23:41:13.819Z,3.00
2017-12-12T23:43:42.357Z,3.00
2017-12-12T23:46:11.517Z,3.00
2017-12-12T23:48:39.983Z,3.00
2017-12-12T23:51:08.356Z,3.00
2017-12-12T23:53:36.736Z,3.00
2017-12-12T23:56:05.118Z,2.90
2017-12-12T23:58:33.476Z,2.90
